createdAt,value
2022-10-20T00:00:25.326Z,282
2022-10-20T00:02:30.874Z,282
2022-10-20T00:04:35.998Z,282
2022-10-20T00:06:41.320Z,282
2022-10-20T00:08:46.690Z,282
2022-10-20T00:12:58.540Z,282
2022-10-20T00:15:03.547Z,282
2022-10-20T00:17:08.551Z,282
2022-10-20T00:19:13.560Z,282
2022-10-20T00:21:18.617Z,282
2022-10-20T00:23:23.621Z,282
2022-10-20T00:25:29.002Z,282
2022-10-20T00:27:34.399Z,282
2022-10-20T00:29:39.635Z,282
2022-10-20T00:31:45.056Z,282
2022-10-20T00:33:50.425Z,282
2022-10-20T00:35:56.407Z,282
2022-10-20T00:38:02.841Z,282
2022-10-20T00:40:08.356Z,282
2022-10-20T00:42:17.568Z,282
2022-10-20T00:44:22.607Z,282
2022-10-20T00:46:27.899Z,282
2022-10-20T00:48:33.208Z,282
2022-10-20T00:50:38.292Z,282
2022-10-20T00:52:43.255Z,282
2022-10-20T00:54:48.389Z,282
2022-10-20T00:56:53.975Z,282
2022-10-20T00:58:59.055Z,282
2022-10-20T01:01:04.137Z,282
2022-10-20T01:03:09.486Z,282
2022-10-20T01:05:14.383Z,282
2022-10-20T01:07:19.441Z,282
2022-10-20T01:09:24.757Z,282
2022-10-20T01:11:31.191Z,282
2022-10-20T01:13:36.649Z,282
2022-10-20T01:15:41.658Z,282
2022-10-20T01:17:47.176Z,282
2022-10-20T01:19:52.267Z,282
2022-10-20T01:21:57.607Z,282
2022-10-20T01:24:02.604Z,282
2022-10-20T01:26:07.996Z,282
2022-10-20T01:28:13.008Z,282
2022-10-20T01:30:18.138Z,282
2022-10-20T01:32:23.386Z,282
2022-10-20T01:34:28.539Z,282
2022-10-20T01:36:33.842Z,282
2022-10-20T01:38:39.001Z,282
2022-10-20T01:40:44.166Z,282
2022-10-20T01:42:49.355Z,282
2022-10-20T01:44:54.634Z,281
2022-10-20T01:46:59.826Z,281
2022-10-20T01:49:04.740Z,281
2022-10-20T01:51:09.812Z,281
2022-10-20T01:53:15.500Z,281
2022-10-20T01:55:20.372Z,281
2022-10-20T01:57:25.590Z,281
2022-10-20T01:59:30.606Z,282
2022-10-20T02:01:36.085Z,281
2022-10-20T02:03:41.704Z,281
2022-10-20T02:05:46.644Z,281
2022-10-20T02:07:51.776Z,282
2022-10-20T02:09:57.254Z,281
2022-10-20T02:12:02.397Z,281
2022-10-20T02:14:07.625Z,281
2022-10-20T02:16:12.652Z,281
2022-10-20T02:18:18.083Z,281
2022-10-20T02:20:23.370Z,281
2022-10-20T02:22:28.430Z,281
2022-10-20T02:24:33.571Z,281
2022-10-20T02:26:39.130Z,282
2022-10-20T02:28:44.029Z,281
2022-10-20T02:30:49.425Z,281
2022-10-20T02:32:54.818Z,281
2022-10-20T02:35:06.545Z,281
2022-10-20T02:37:12.156Z,281
2022-10-20T02:39:17.329Z,281
2022-10-20T02:41:22.451Z,281
2022-10-20T02:43:27.556Z,281
2022-10-20T02:45:33.027Z,281
2022-10-20T02:47:39.441Z,281
2022-10-20T02:49:45.073Z,281
2022-10-20T02:51:50.392Z,281
2022-10-20T02:53:55.581Z,281
2022-10-20T02:56:00.554Z,281
2022-10-20T02:58:05.951Z,281
2022-10-20T03:00:11.360Z,282
2022-10-20T03:02:16.486Z,282
2022-10-20T03:04:21.745Z,281
2022-10-20T03:06:27.049Z,281
2022-10-20T03:08:32.544Z,282
2022-10-20T03:10:37.899Z,282
2022-10-20T03:12:43.191Z,282
2022-10-20T03:14:48.511Z,282
2022-10-20T03:16:56.881Z,281
2022-10-20T03:19:11.911Z,281
2022-10-20T03:21:17.084Z,282
2022-10-20T03:23:22.839Z,281
2022-10-20T03:25:28.032Z,282
2022-10-20T03:27:33.593Z,281
2022-10-20T03:29:39.675Z,281
2022-10-20T03:31:45.373Z,282
2022-10-20T03:33:51.011Z,282
2022-10-20T03:35:56.065Z,282
2022-10-20T03:38:01.856Z,282
2022-10-20T03:40:07.026Z,282
2022-10-20T03:42:12.404Z,282
2022-10-20T03:44:17.782Z,281
2022-10-20T03:46:23.162Z,281
2022-10-20T03:48:28.422Z,282
2022-10-20T03:50:33.731Z,281
2022-10-20T03:52:40.334Z,281
2022-10-20T03:54:45.389Z,281
2022-10-20T03:56:50.629Z,282
2022-10-20T03:58:55.956Z,282
2022-10-20T04:01:01.561Z,282
2022-10-20T04:03:06.796Z,282
2022-10-20T04:05:12.024Z,282
2022-10-20T04:07:17.113Z,281
2022-10-20T04:09:22.368Z,282
2022-10-20T04:11:27.713Z,282
2022-10-20T04:13:33.224Z,282
2022-10-20T04:15:38.366Z,282
2022-10-20T04:17:43.781Z,282
2022-10-20T04:19:49.278Z,282
2022-10-20T04:21:54.626Z,282
2022-10-20T04:23:59.975Z,282
2022-10-20T04:26:05.151Z,282
2022-10-20T04:28:10.642Z,282
2022-10-20T04:30:15.850Z,282
2022-10-20T04:32:21.736Z,282
2022-10-20T04:34:27.165Z,282
2022-10-20T04:36:33.319Z,282
2022-10-20T04:38:38.653Z,282
2022-10-20T04:40:44.394Z,282
2022-10-20T04:42:50.150Z,282
2022-10-20T04:47:02.802Z,282
2022-10-20T04:49:08.601Z,282
2022-10-20T04:51:14.186Z,282
2022-10-20T04:53:19.830Z,282
2022-10-20T04:55:26.028Z,282
2022-10-20T04:57:31.677Z,282
2022-10-20T04:59:37.123Z,282
2022-10-20T05:01:42.554Z,282
2022-10-20T05:03:48.078Z,282
2022-10-20T05:05:53.547Z,282
2022-10-20T05:07:59.104Z,282
2022-10-20T05:10:05.391Z,282
2022-10-20T05:12:12.111Z,282
2022-10-20T05:14:19.093Z,282
2022-10-20T05:16:24.376Z,282
2022-10-20T05:18:30.223Z,282
2022-10-20T05:21:09.860Z,282
2022-10-20T05:23:15.843Z,282
2022-10-20T05:25:38.657Z,282
2022-10-20T05:27:44.555Z,282
2022-10-20T05:29:50.090Z,281
2022-10-20T05:31:55.877Z,282
2022-10-20T05:34:01.005Z,282
2022-10-20T05:36:06.724Z,281
2022-10-20T05:38:12.094Z,282
2022-10-20T05:40:17.587Z,281
2022-10-20T05:42:22.878Z,281
2022-10-20T05:44:27.981Z,281
2022-10-20T05:46:33.324Z,281
2022-10-20T05:48:44.632Z,281
2022-10-20T05:50:50.339Z,281
2022-10-20T05:52:55.787Z,281
2022-10-20T05:55:01.244Z,281
2022-10-20T05:57:06.677Z,281
2022-10-20T05:59:12.148Z,281
2022-10-20T06:01:18.011Z,277
2022-10-20T06:03:29.801Z,281
2022-10-20T06:05:35.496Z,282
2022-10-20T06:07:41.036Z,281
2022-10-20T06:09:46.699Z,280
2022-10-20T06:11:52.301Z,282
2022-10-20T06:13:57.608Z,282
2022-10-20T06:16:02.949Z,281
2022-10-20T06:18:08.983Z,282
2022-10-20T06:20:14.325Z,280
2022-10-20T06:22:20.014Z,280
2022-10-20T06:24:25.227Z,280
2022-10-20T06:26:30.559Z,280
2022-10-20T06:28:35.998Z,280
2022-10-20T06:30:41.108Z,280
2022-10-20T06:32:46.953Z,280
2022-10-20T06:34:52.152Z,279
2022-10-20T06:36:57.514Z,279
2022-10-20T06:39:02.980Z,280
2022-10-20T06:41:08.322Z,279
2022-10-20T06:43:13.826Z,279
2022-10-20T06:45:20.292Z,279
2022-10-20T06:47:25.503Z,279
2022-10-20T06:49:30.754Z,280
2022-10-20T06:51:36.655Z,279
2022-10-20T06:53:48.284Z,279
2022-10-20T06:55:53.492Z,279
2022-10-20T06:57:58.770Z,279
2022-10-20T07:00:04.210Z,279
2022-10-20T07:02:09.931Z,279
2022-10-20T07:04:15.555Z,280
2022-10-20T07:06:21.004Z,279
2022-10-20T07:08:26.087Z,279
2022-10-20T07:10:31.978Z,280
2022-10-20T07:12:38.861Z,280
2022-10-20T07:14:44.248Z,280
2022-10-20T07:16:49.493Z,280
2022-10-20T07:18:54.784Z,280
2022-10-20T07:21:00.415Z,280
2022-10-20T07:23:05.570Z,280
2022-10-20T07:25:11.121Z,280
2022-10-20T07:27:16.389Z,280
2022-10-20T07:29:21.986Z,280
2022-10-20T07:31:27.359Z,280
2022-10-20T07:33:32.609Z,280
2022-10-20T07:35:37.841Z,280
2022-10-20T07:37:43.009Z,280
2022-10-20T07:39:48.669Z,280
2022-10-20T07:41:54.223Z,280
2022-10-20T07:43:59.919Z,280
2022-10-20T07:46:05.162Z,279
2022-10-20T07:48:10.321Z,279
2022-10-20T07:50:15.618Z,280
2022-10-20T07:52:24.909Z,280
2022-10-20T07:54:30.196Z,279
2022-10-20T07:56:36.076Z,280
2022-10-20T07:58:41.556Z,279
2022-10-20T08:00:46.728Z,280
2022-10-20T08:02:52.018Z,280
2022-10-20T08:04:57.503Z,280
2022-10-20T08:07:02.815Z,279
2022-10-20T08:09:08.029Z,280
2022-10-20T08:11:13.277Z,279
2022-10-20T08:13:18.631Z,280
2022-10-20T08:15:24.044Z,280
2022-10-20T08:17:29.207Z,280
2022-10-20T08:19:46.705Z,280
2022-10-20T08:22:05.777Z,280
2022-10-20T08:24:11.013Z,280
2022-10-20T08:26:17.687Z,280
2022-10-20T08:28:28.370Z,280
2022-10-20T08:30:33.673Z,280
2022-10-20T08:32:40.300Z,280
2022-10-20T08:34:45.461Z,280
2022-10-20T08:36:50.861Z,280
2022-10-20T08:38:56.130Z,280
2022-10-20T08:41:05.434Z,280
2022-10-20T08:43:10.749Z,280
2022-10-20T08:45:16.027Z,280
2022-10-20T08:47:21.318Z,280
2022-10-20T08:49:26.842Z,280
2022-10-20T08:51:32.387Z,279
2022-10-20T08:53:38.570Z,280
2022-10-20T08:55:43.835Z,279
2022-10-20T08:57:49.226Z,279
2022-10-20T08:59:54.446Z,279
2022-10-20T09:01:59.851Z,279
2022-10-20T09:04:05.737Z,279
2022-10-20T09:06:11.604Z,279
2022-10-20T09:08:16.810Z,279
2022-10-20T09:10:22.368Z,279
2022-10-20T09:12:33.554Z,279
2022-10-20T09:14:39.092Z,279
2022-10-20T09:17:02.438Z,279
2022-10-20T09:19:09.412Z,279
2022-10-20T09:21:14.679Z,279
2022-10-20T09:23:44.090Z,279
2022-10-20T09:25:49.830Z,279
2022-10-20T09:27:55.215Z,279
2022-10-20T09:30:00.621Z,279
2022-10-20T09:32:48.758Z,279
2022-10-20T09:34:54.863Z,279
2022-10-20T09:37:00.193Z,279
2022-10-20T09:39:05.717Z,279
2022-10-20T09:41:10.969Z,279
2022-10-20T09:43:16.871Z,279
2022-10-20T09:45:23.049Z,279
2022-10-20T09:47:28.299Z,279
2022-10-20T09:49:33.364Z,279
2022-10-20T09:51:38.604Z,279
2022-10-20T09:53:44.064Z,279
2022-10-20T09:55:50.241Z,279
2022-10-20T09:57:55.525Z,279
2022-10-20T10:00:37.769Z,279
2022-10-20T10:02:44.074Z,279
2022-10-20T10:04:51.153Z,279
2022-10-20T10:06:57.439Z,279
2022-10-20T10:09:03.287Z,279
2022-10-20T10:11:09.127Z,279
2022-10-20T10:13:14.519Z,276
2022-10-20T10:15:19.827Z,270
2022-10-20T10:17:25.034Z,270
2022-10-20T10:19:33.508Z,270
2022-10-20T10:21:39.223Z,270
2022-10-20T10:23:44.504Z,277
2022-10-20T10:25:50.086Z,276
2022-10-20T10:27:55.406Z,276
2022-10-20T10:30:00.676Z,276
2022-10-20T10:32:06.128Z,270
2022-10-20T10:34:11.439Z,272
2022-10-20T10:36:17.730Z,272
2022-10-20T10:38:22.919Z,272
2022-10-20T10:40:28.547Z,272
2022-10-20T10:42:35.161Z,274
2022-10-20T10:44:41.541Z,274
2022-10-20T10:46:47.990Z,274
2022-10-20T10:48:53.219Z,274
2022-10-20T10:50:59.094Z,274
2022-10-20T10:53:04.578Z,274
2022-10-20T10:55:17.360Z,274
2022-10-20T10:57:53.879Z,274
2022-10-20T10:59:59.818Z,273
2022-10-20T11:02:06.429Z,273
2022-10-20T11:04:11.891Z,273
2022-10-20T11:06:17.302Z,273
2022-10-20T11:08:22.650Z,273
2022-10-20T11:10:28.132Z,272
2022-10-20T11:12:33.668Z,272
2022-10-20T11:14:39.000Z,273
2022-10-20T11:16:45.531Z,272
2022-10-20T11:18:50.675Z,272
2022-10-20T11:20:57.668Z,273
2022-10-20T11:23:03.294Z,273
2022-10-20T11:25:09.537Z,273
2022-10-20T11:27:15.778Z,274
2022-10-20T11:29:21.035Z,273
2022-10-20T11:31:26.396Z,273
2022-10-20T11:33:32.170Z,274
2022-10-20T11:35:41.593Z,274
2022-10-20T11:37:47.769Z,274
2022-10-20T11:39:53.159Z,274
2022-10-20T11:41:58.694Z,274
2022-10-20T11:44:04.193Z,276
2022-10-20T11:46:09.652Z,276
2022-10-20T11:48:15.101Z,276
2022-10-20T11:50:20.433Z,276
2022-10-20T11:52:28.887Z,276
2022-10-20T11:54:34.122Z,276
2022-10-20T11:56:39.642Z,276
2022-10-20T11:58:45.193Z,276
2022-10-20T12:00:51.856Z,276
2022-10-20T12:03:01.912Z,276
2022-10-20T12:05:07.835Z,276
2022-10-20T12:07:13.379Z,276
2022-10-20T12:09:19.552Z,276
2022-10-20T12:11:25.512Z,276
2022-10-20T12:13:30.868Z,276
2022-10-20T12:15:36.382Z,276
2022-10-20T12:17:41.804Z,276
2022-10-20T12:19:47.419Z,276
2022-10-20T12:21:52.917Z,276
2022-10-20T12:23:58.039Z,276
2022-10-20T12:26:03.733Z,276
2022-10-20T12:28:12.519Z,276
2022-10-20T12:30:18.301Z,276
2022-10-20T12:32:23.725Z,276
2022-10-20T12:34:30.224Z,276
2022-10-20T12:36:35.349Z,276
2022-10-20T12:38:40.719Z,276
2022-10-20T12:40:45.989Z,276
2022-10-20T12:42:52.381Z,276
2022-10-20T12:44:57.782Z,276
2022-10-20T12:47:03.091Z,276
2022-10-20T12:49:13.451Z,273
2022-10-20T12:51:18.898Z,276
2022-10-20T12:53:24.391Z,276
2022-10-20T12:55:31.033Z,276
2022-10-20T12:57:40.391Z,276
2022-10-20T12:59:45.904Z,276
2022-10-20T13:01:51.177Z,276
2022-10-20T13:03:56.524Z,274
2022-10-20T13:06:01.852Z,276
2022-10-20T13:08:07.399Z,276
2022-10-20T13:10:13.928Z,276
2022-10-20T13:12:19.407Z,274
2022-10-20T13:14:24.716Z,276
2022-10-20T13:16:29.875Z,276
2022-10-20T13:18:35.279Z,274
2022-10-20T13:20:40.518Z,274
2022-10-20T13:22:45.743Z,274
2022-10-20T13:24:54.736Z,273
2022-10-20T13:27:02.311Z,273
2022-10-20T13:29:08.552Z,276
2022-10-20T13:31:13.817Z,274
2022-10-20T13:34:05.887Z,273
2022-10-20T13:36:12.915Z,274
2022-10-20T13:38:18.321Z,274
2022-10-20T13:40:26.614Z,274
2022-10-20T13:42:31.998Z,276
2022-10-20T13:44:37.629Z,274
2022-10-20T13:46:43.880Z,274
2022-10-20T13:48:49.735Z,274
2022-10-20T13:50:56.798Z,274
2022-10-20T13:53:03.513Z,274
2022-10-20T13:55:10.034Z,269
2022-10-20T13:57:15.560Z,270
2022-10-20T13:59:20.927Z,270
2022-10-20T14:01:27.733Z,269
2022-10-20T14:03:34.100Z,270
2022-10-20T14:05:39.626Z,269
2022-10-20T14:07:45.046Z,270
2022-10-20T14:09:56.083Z,270
2022-10-20T14:12:03.203Z,269
2022-10-20T14:14:09.477Z,269
2022-10-20T14:16:15.155Z,268
2022-10-20T14:18:20.605Z,269
2022-10-20T14:20:25.834Z,270
2022-10-20T14:22:31.441Z,270
2022-10-20T14:24:37.354Z,269
2022-10-20T14:26:42.888Z,270
2022-10-20T14:28:48.389Z,269
2022-10-20T14:30:54.047Z,269
2022-10-20T14:32:59.801Z,270
2022-10-20T14:35:06.021Z,269
2022-10-20T14:37:11.909Z,269
2022-10-20T14:39:17.783Z,270
2022-10-20T14:41:23.105Z,268
2022-10-20T14:43:29.075Z,269
2022-10-20T14:45:34.807Z,269
2022-10-20T14:47:41.107Z,269
2022-10-20T14:49:52.383Z,270
2022-10-20T14:51:58.934Z,269
2022-10-20T14:54:04.834Z,268
2022-10-20T14:56:11.200Z,269
2022-10-20T14:58:19.151Z,269
2022-10-20T15:00:26.413Z,270
2022-10-20T15:02:32.485Z,269
2022-10-20T15:04:39.521Z,273
2022-10-20T15:06:45.065Z,274
2022-10-20T15:08:51.297Z,274
2022-10-20T15:10:57.806Z,273
2022-10-20T15:13:04.358Z,273
2022-10-20T15:15:10.616Z,274
2022-10-20T15:17:16.949Z,273
2022-10-20T15:19:23.083Z,273
2022-10-20T15:21:29.407Z,272
2022-10-20T15:23:35.714Z,273
2022-10-20T15:25:41.834Z,273
2022-10-20T15:27:48.102Z,272
2022-10-20T15:29:54.531Z,272
2022-10-20T15:32:00.523Z,272
2022-10-20T15:34:07.564Z,273
2022-10-20T15:36:13.830Z,273
2022-10-20T15:38:21.727Z,272
2022-10-20T15:40:28.440Z,273
2022-10-20T15:42:35.619Z,273
2022-10-20T15:44:42.603Z,270
2022-10-20T15:46:49.301Z,273
2022-10-20T15:48:55.788Z,272
2022-10-20T15:51:03.218Z,269
2022-10-20T15:53:10.633Z,269
2022-10-20T15:55:16.731Z,268
2022-10-20T15:57:24.324Z,269
2022-10-20T15:59:30.621Z,269
2022-10-20T16:01:37.289Z,269
2022-10-20T16:03:45.246Z,270
2022-10-20T16:05:52.883Z,269
2022-10-20T16:07:59.296Z,269
2022-10-20T16:10:05.909Z,270
2022-10-20T16:12:13.888Z,270
2022-10-20T16:14:20.311Z,269
2022-10-20T16:16:28.544Z,270
2022-10-20T16:18:35.817Z,270
2022-10-20T16:20:43.243Z,269
2022-10-20T16:22:51.352Z,270
2022-10-20T16:25:00.795Z,270
2022-10-20T16:27:08.507Z,270
2022-10-20T16:29:14.791Z,270
2022-10-20T16:31:20.646Z,269
2022-10-20T16:33:26.723Z,270
2022-10-20T16:35:35.041Z,270
2022-10-20T16:37:42.611Z,269
2022-10-20T16:39:49.630Z,270
2022-10-20T16:42:00.347Z,270
2022-10-20T16:44:06.654Z,270
2022-10-20T16:46:15.265Z,270
2022-10-20T16:48:21.477Z,270
2022-10-20T16:50:29.847Z,269
2022-10-20T16:52:37.301Z,270
2022-10-20T16:54:44.999Z,270
2022-10-20T16:56:54.519Z,270
2022-10-20T16:59:04.610Z,270
2022-10-20T17:01:13.617Z,270
2022-10-20T17:03:23.983Z,270
2022-10-20T17:05:37.271Z,270
2022-10-20T17:07:50.836Z,269
2022-10-20T17:10:01.090Z,252
2022-10-20T17:12:10.302Z,254
2022-10-20T17:14:20.680Z,267
2022-10-20T17:16:31.841Z,266
2022-10-20T17:18:41.271Z,262
2022-10-20T17:20:48.792Z,264
2022-10-20T17:23:00.676Z,262
2022-10-20T17:25:12.664Z,262
2022-10-20T17:27:21.266Z,261
2022-10-20T17:29:32.897Z,255
2022-10-20T17:31:45.244Z,257
2022-10-20T17:33:59.145Z,257
2022-10-20T17:36:11.513Z,256
2022-10-20T17:38:20.728Z,259
2022-10-20T17:40:30.464Z,257
2022-10-20T17:42:45.245Z,259
2022-10-20T17:44:54.272Z,262
2022-10-20T17:47:01.541Z,264
2022-10-20T17:49:16.720Z,257
2022-10-20T17:51:34.886Z,257
2022-10-20T17:53:47.881Z,259
2022-10-20T17:55:58.883Z,256
2022-10-20T17:58:14.633Z,257
2022-10-20T18:01:01.973Z,257
2022-10-20T18:03:17.211Z,259
2022-10-20T18:05:25.876Z,272
2022-10-20T18:07:40.452Z,272
2022-10-20T18:09:50.713Z,270
2022-10-20T18:12:07.838Z,270
2022-10-20T18:14:16.751Z,272
2022-10-20T18:16:28.439Z,272
2022-10-20T18:18:49.440Z,272
2022-10-20T18:21:08.194Z,273
2022-10-20T18:23:15.324Z,268
2022-10-20T18:25:24.100Z,270
2022-10-20T18:27:35.203Z,272
2022-10-20T18:29:45.716Z,272
2022-10-20T18:31:55.432Z,272
2022-10-20T18:34:10.157Z,272
2022-10-20T18:36:29.613Z,272
2022-10-20T18:38:40.222Z,272
2022-10-20T18:41:02.649Z,273
2022-10-20T18:43:17.906Z,272
2022-10-20T18:45:30.782Z,272
2022-10-20T18:47:41.963Z,272
2022-10-20T18:50:00.647Z,272
2022-10-20T18:52:16.512Z,273
2022-10-20T18:54:28.819Z,273
2022-10-20T18:56:38.934Z,272
2022-10-20T18:58:51.746Z,273
2022-10-20T19:01:02.768Z,270
2022-10-20T19:03:14.853Z,273
2022-10-20T19:05:36.418Z,272
2022-10-20T19:07:47.774Z,273
2022-10-20T19:10:02.448Z,272
2022-10-20T19:12:16.208Z,273
2022-10-20T19:14:40.323Z,273
2022-10-20T19:17:02.513Z,273
2022-10-20T19:19:23.945Z,272
2022-10-20T19:21:37.256Z,272
2022-10-20T19:23:53.715Z,272
2022-10-20T19:26:06.971Z,273
2022-10-20T19:28:26.573Z,269
2022-10-20T19:30:36.867Z,270
2022-10-20T19:32:49.534Z,273
2022-10-20T19:35:03.650Z,272
2022-10-20T19:37:14.127Z,273
2022-10-20T19:41:34.824Z,272
2022-10-20T19:43:48.280Z,272
2022-10-20T19:46:00.630Z,272
2022-10-20T19:48:11.670Z,272
2022-10-20T19:50:22.199Z,270
2022-10-20T19:52:36.994Z,268
2022-10-20T19:54:46.980Z,270
2022-10-20T19:56:59.871Z,268
2022-10-20T19:59:11.012Z,273
2022-10-20T20:01:19.517Z,267
2022-10-20T20:03:27.962Z,271
2022-10-20T20:05:36.230Z,271
2022-10-20T20:07:46.463Z,272
2022-10-20T20:09:55.126Z,272
2022-10-20T20:12:04.043Z,267
2022-10-20T20:14:12.531Z,267
2022-10-20T20:16:21.133Z,268
2022-10-20T20:18:30.336Z,269
2022-10-20T20:20:38.245Z,270
2022-10-20T20:22:46.324Z,269
2022-10-20T20:24:54.467Z,266
2022-10-20T20:27:02.685Z,266
2022-10-20T20:29:13.227Z,267
2022-10-20T20:31:21.711Z,272
2022-10-20T20:33:30.339Z,262
2022-10-20T20:35:39.033Z,264
2022-10-20T20:37:45.555Z,264
2022-10-20T20:39:52.525Z,264
2022-10-20T20:42:00.398Z,264
2022-10-20T20:44:11.898Z,264
2022-10-20T20:46:18.706Z,264
2022-10-20T20:48:25.804Z,264
2022-10-20T20:50:32.314Z,262
2022-10-20T20:52:40.449Z,264
2022-10-20T20:54:46.795Z,262
2022-10-20T20:56:53.093Z,262
2022-10-20T20:58:59.293Z,262
2022-10-20T21:01:05.202Z,264
2022-10-20T21:03:11.783Z,264
2022-10-20T21:05:18.196Z,259
2022-10-20T21:07:24.901Z,259
2022-10-20T21:09:31.343Z,261
2022-10-20T21:11:37.355Z,261
2022-10-20T21:13:43.449Z,260
2022-10-20T21:15:49.588Z,257
2022-10-20T21:17:56.177Z,257
2022-10-20T21:20:02.144Z,259
2022-10-20T21:22:08.187Z,256
2022-10-20T21:24:14.342Z,259
2022-10-20T21:26:20.613Z,259
2022-10-20T21:28:26.199Z,257
2022-10-20T21:30:32.321Z,259
2022-10-20T21:32:39.767Z,258
2022-10-20T21:34:45.216Z,257
2022-10-20T21:36:50.713Z,257
2022-10-20T21:38:56.586Z,257
2022-10-20T21:41:02.899Z,257
2022-10-20T21:43:08.765Z,272
2022-10-20T21:45:20.564Z,270
2022-10-20T21:47:27.096Z,268
2022-10-20T21:49:33.612Z,267
2022-10-20T21:51:39.791Z,267
2022-10-20T21:53:45.076Z,266
2022-10-20T21:55:50.630Z,265
2022-10-20T21:57:56.211Z,252
2022-10-20T22:00:01.838Z,254
2022-10-20T22:02:07.968Z,262
2022-10-20T22:04:13.952Z,265
2022-10-20T22:06:20.003Z,267
2022-10-20T22:08:25.484Z,264
2022-10-20T22:10:31.842Z,264
2022-10-20T22:12:37.715Z,265
2022-10-20T22:14:48.579Z,266
2022-10-20T22:16:53.787Z,266
2022-10-20T22:18:59.096Z,266
2022-10-20T22:21:04.072Z,265
2022-10-20T22:23:15.397Z,266
2022-10-20T22:25:20.710Z,265
2022-10-20T22:27:44.221Z,266
2022-10-20T22:29:50.751Z,267
2022-10-20T22:32:01.438Z,265
2022-10-20T22:34:06.581Z,266
2022-10-20T22:36:12.250Z,264
2022-10-20T22:38:17.679Z,266
2022-10-20T22:40:22.934Z,264
2022-10-20T22:42:28.069Z,265
2022-10-20T22:44:33.447Z,265
2022-10-20T22:46:38.717Z,259
2022-10-20T22:48:44.490Z,258
2022-10-20T22:50:49.992Z,257
2022-10-20T22:52:55.640Z,261
2022-10-20T22:55:00.823Z,264
2022-10-20T22:57:06.067Z,264
2022-10-20T22:59:11.497Z,262
2022-10-20T23:01:17.140Z,264
2022-10-20T23:03:22.498Z,261
2022-10-20T23:05:27.640Z,262
2022-10-20T23:07:36.650Z,262
2022-10-20T23:09:42.574Z,262
2022-10-20T23:11:47.839Z,262
2022-10-20T23:13:52.979Z,262
2022-10-20T23:15:58.318Z,262
2022-10-20T23:18:03.427Z,262
2022-10-20T23:20:08.628Z,265
2022-10-20T23:22:13.818Z,265
2022-10-20T23:24:19.282Z,264
2022-10-20T23:26:24.382Z,262
2022-10-20T23:28:29.623Z,256
2022-10-20T23:30:35.238Z,257
2022-10-20T23:32:40.426Z,256
2022-10-20T23:34:45.868Z,256
2022-10-20T23:36:51.463Z,257
2022-10-20T23:38:56.614Z,261
2022-10-20T23:41:01.848Z,257
2022-10-20T23:43:07.506Z,259
2022-10-20T23:45:13.064Z,267
2022-10-20T23:47:18.711Z,266
2022-10-20T23:49:24.450Z,264
2022-10-20T23:51:29.565Z,267
2022-10-20T23:53:34.878Z,262
2022-10-20T23:55:43.417Z,264
2022-10-20T23:57:48.560Z,264
2022-10-20T23:59:53.728Z,264
